Terminal Aerodrome Forecast
Issued by NWS

Home | Current Version | Previous Version | Text Only | Print | Product List | Glossary On
Versions: 1 2 3 4 5 6 7 8 9 10 11 12 13 14 15 16
000
FTUS43 KJKL 302338
TAFSME
TAF
KSME 302338Z 3100/3124 33007KT P6SM FEW040 SCT250
     FM310100 VRB04KT P6SM SCT250
     FM311000 00000KT 4SM BR SKC
     FM311300 VRB06KT P6SM SKC=

USA.gov is the U.S. government's official web portal to all federal, state and local government web resources and services.